sensor_id;sensor_type;location;lat;lon;timestamp;temperature;humidity
66722;SHT31;53633;49.932;10.884;2024-02-26T00:02:34;2.77;82.82
66722;SHT31;53633;49.932;10.884;2024-02-26T00:09:00;2.83;82.74
66722;SHT31;53633;49.932;10.884;2024-02-26T00:11:41;2.86;82.87
66722;SHT31;53633;49.932;10.884;2024-02-26T00:14:28;2.93;82.70
66722;SHT31;53633;49.932;10.884;2024-02-26T00:17:22;3.00;82.41
66722;SHT31;53633;49.932;10.884;2024-02-26T00:20:28;3.03;82.48
66722;SHT31;53633;49.932;10.884;2024-02-26T00:23:15;3.10;82.36
66722;SHT31;53633;49.932;10.884;2024-02-26T00:32:27;3.03;82.66
66722;SHT31;53633;49.932;10.884;2024-02-26T00:35:39;3.11;82.52
66722;SHT31;53633;49.932;10.884;2024-02-26T00:38:20;3.14;82.28
66722;SHT31;53633;49.932;10.884;2024-02-26T00:41:07;3.14;82.45
66722;SHT31;53633;49.932;10.884;2024-02-26T00:47:15;3.21;82.34
66722;SHT31;53633;49.932;10.884;2024-02-26T00:59:36;3.15;82.49
66722;SHT31;53633;49.932;10.884;2024-02-26T01:06:00;3.17;82.57
66722;SHT31;53633;49.932;10.884;2024-02-26T01:08:52;3.10;82.78
66722;SHT31;53633;49.932;10.884;2024-02-26T01:12:02;3.08;82.74
66722;SHT31;53633;49.932;10.884;2024-02-26T01:18:39;2.96;82.97
66722;SHT31;53633;49.932;10.884;2024-02-26T01:24:59;2.94;82.91
66722;SHT31;53633;49.932;10.884;2024-02-26T01:28:04;2.93;82.76
66722;SHT31;53633;49.932;10.884;2024-02-26T01:37:18;2.84;82.83
66722;SHT31;53633;49.932;10.884;2024-02-26T01:39:46;2.80;82.86
66722;SHT31;53633;49.932;10.884;2024-02-26T01:42:27;2.79;83.08
66722;SHT31;53633;49.932;10.884;2024-02-26T01:45:15;2.86;83.06
66722;SHT31;53633;49.932;10.884;2024-02-26T01:47:57;2.84;82.88
66722;SHT31;53633;49.932;10.884;2024-02-26T01:51:02;2.80;83.08
66722;SHT31;53633;49.932;10.884;2024-02-26T01:54:07;2.79;83.16
66722;SHT31;53633;49.932;10.884;2024-02-26T01:56:52;2.71;83.24
66722;SHT31;53633;49.932;10.884;2024-02-26T01:59:43;2.73;83.54
66722;SHT31;53633;49.932;10.884;2024-02-26T02:02:47;2.84;83.00
66722;SHT31;53633;49.932;10.884;2024-02-26T02:18:57;2.93;82.82
66722;SHT31;53633;49.932;10.884;2024-02-26T02:28:05;2.92;83.02
66722;SHT31;53633;49.932;10.884;2024-02-26T02:31:14;2.93;82.98
66722;SHT31;53633;49.932;10.884;2024-02-26T02:34:15;2.94;82.97
66722;SHT31;53633;49.932;10.884;2024-02-26T02:37:00;2.99;82.89
66722;SHT31;53633;49.932;10.884;2024-02-26T02:39:46;3.03;82.77
66722;SHT31;53633;49.932;10.884;2024-02-26T02:43:04;3.04;82.74
66722;SHT31;53633;49.932;10.884;2024-02-26T02:45:37;3.01;83.02
66722;SHT31;53633;49.932;10.884;2024-02-26T02:48:34;3.00;83.12
66722;SHT31;53633;49.932;10.884;2024-02-26T03:01:29;3.15;83.06
66722;SHT31;53633;49.932;10.884;2024-02-26T03:04:19;3.18;83.04
66722;SHT31;53633;49.932;10.884;2024-02-26T03:07:05;3.21;83.07
66722;SHT31;53633;49.932;10.884;2024-02-26T03:09:48;3.27;83.22
66722;SHT31;53633;49.932;10.884;2024-02-26T03:12:31;3.35;83.08
66722;SHT31;53633;49.932;10.884;2024-02-26T03:15:15;3.35;83.07
66722;SHT31;53633;49.932;10.884;2024-02-26T03:36:54;3.55;82.96
66722;SHT31;53633;49.932;10.884;2024-02-26T03:39:55;3.51;83.04
66722;SHT31;53633;49.932;10.884;2024-02-26T03:42:36;3.54;83.07
66722;SHT31;53633;49.932;10.884;2024-02-26T03:45:26;3.51;83.29
66722;SHT31;53633;49.932;10.884;2024-02-26T03:48:40;3.51;83.25
66722;SHT31;53633;49.932;10.884;2024-02-26T04:01:18;3.51;83.71
66722;SHT31;53633;49.932;10.884;2024-02-26T04:04:08;3.52;83.61
66722;SHT31;53633;49.932;10.884;2024-02-26T04:07:06;3.52;83.54
66722;SHT31;53633;49.932;10.884;2024-02-26T04:51:24;3.38;83.80
66722;SHT31;53633;49.932;10.884;2024-02-26T04:57:26;3.38;83.74
66722;SHT31;53633;49.932;10.884;2024-02-26T05:00:38;3.38;83.82
66722;SHT31;53633;49.932;10.884;2024-02-26T05:03:21;3.36;83.89
66722;SHT31;53633;49.932;10.884;2024-02-26T05:06:04;3.31;84.18
66722;SHT31;53633;49.932;10.884;2024-02-26T05:12:04;3.46;83.91
66722;SHT31;53633;49.932;10.884;2024-02-26T05:14:47;3.45;84.15
66722;SHT31;53633;49.932;10.884;2024-02-26T05:17:46;3.42;84.33
66722;SHT31;53633;49.932;10.884;2024-02-26T05:20:38;3.46;84.52
66722;SHT31;53633;49.932;10.884;2024-02-26T05:23:25;3.51;84.44
66722;SHT31;53633;49.932;10.884;2024-02-26T05:26:24;3.48;84.66
66722;SHT31;53633;49.932;10.884;2024-02-26T05:48:31;3.58;84.51
66722;SHT31;53633;49.932;10.884;2024-02-26T05:51:30;3.63;84.24
66722;SHT31;53633;49.932;10.884;2024-02-26T05:54:35;3.54;84.42
66722;SHT31;53633;49.932;10.884;2024-02-26T05:57:53;3.60;84.45
66722;SHT31;53633;49.932;10.884;2024-02-26T06:04:12;3.73;84.08
66722;SHT31;53633;49.932;10.884;2024-02-26T06:06:39;3.75;83.95
66722;SHT31;53633;49.932;10.884;2024-02-26T06:09:09;3.73;84.10
66722;SHT31;53633;49.932;10.884;2024-02-26T06:11:36;3.76;84.21
66722;SHT31;53633;49.932;10.884;2024-02-26T06:14:03;3.79;84.25
66722;SHT31;53633;49.932;10.884;2024-02-26T06:16:30;3.83;84.20
66722;SHT31;53633;49.932;10.884;2024-02-26T06:18:58;3.91;83.99
66722;SHT31;53633;49.932;10.884;2024-02-26T06:21:27;3.90;84.03
66722;SHT31;53633;49.932;10.884;2024-02-26T06:23:57;3.97;83.76
66722;SHT31;53633;49.932;10.884;2024-02-26T06:26:23;3.96;83.73
66722;SHT31;53633;49.932;10.884;2024-02-26T06:28:50;4.01;83.74
66722;SHT31;53633;49.932;10.884;2024-02-26T06:31:18;3.98;83.68
66722;SHT31;53633;49.932;10.884;2024-02-26T06:33:45;4.03;83.62
66722;SHT31;53633;49.932;10.884;2024-02-26T06:36:12;4.07;83.67
66722;SHT31;53633;49.932;10.884;2024-02-26T06:38:44;4.06;83.64
66722;SHT31;53633;49.932;10.884;2024-02-26T06:41:12;4.06;83.70
66722;SHT31;53633;49.932;10.884;2024-02-26T06:43:40;4.08;83.66
66722;SHT31;53633;49.932;10.884;2024-02-26T06:46:08;4.07;83.76
66722;SHT31;53633;49.932;10.884;2024-02-26T06:48:36;4.04;84.02
66722;SHT31;53633;49.932;10.884;2024-02-26T06:51:04;4.06;84.07
66722;SHT31;53633;49.932;10.884;2024-02-26T06:53:31;4.08;84.21
66722;SHT31;53633;49.932;10.884;2024-02-26T06:55:59;4.13;84.19
66722;SHT31;53633;49.932;10.884;2024-02-26T06:58:26;4.20;84.09
66722;SHT31;53633;49.932;10.884;2024-02-26T07:00:53;4.24;83.92
66722;SHT31;53633;49.932;10.884;2024-02-26T07:03:21;4.28;83.83
66722;SHT31;53633;49.932;10.884;2024-02-26T07:05:47;4.33;83.86
66722;SHT31;53633;49.932;10.884;2024-02-26T07:08:15;4.34;83.83
66722;SHT31;53633;49.932;10.884;2024-02-26T07:10:44;4.34;84.00
66722;SHT31;53633;49.932;10.884;2024-02-26T07:13:13;4.37;83.91
66722;SHT31;53633;49.932;10.884;2024-02-26T07:15:39;4.31;84.05
66722;SHT31;53633;49.932;10.884;2024-02-26T07:18:06;4.35;84.16
66722;SHT31;53633;49.932;10.884;2024-02-26T07:20:34;4.35;84.17
66722;SHT31;53633;49.932;10.884;2024-02-26T07:23:00;4.34;84.29
66722;SHT31;53633;49.932;10.884;2024-02-26T07:25:28;4.40;84.23
66722;SHT31;53633;49.932;10.884;2024-02-26T07:27:57;4.54;83.85
66722;SHT31;53633;49.932;10.884;2024-02-26T07:30:26;4.51;83.88
66722;SHT31;53633;49.932;10.884;2024-02-26T07:32:54;4.55;83.99
66722;SHT31;53633;49.932;10.884;2024-02-26T07:35:21;4.63;83.96
66722;SHT31;53633;49.932;10.884;2024-02-26T07:37:49;4.68;83.65
66722;SHT31;53633;49.932;10.884;2024-02-26T07:40:16;4.72;83.52
66722;SHT31;53633;49.932;10.884;2024-02-26T07:42:43;4.73;83.59
66722;SHT31;53633;49.932;10.884;2024-02-26T07:45:13;4.69;83.65
66722;SHT31;53633;49.932;10.884;2024-02-26T07:47:51;4.72;83.69
66722;SHT31;53633;49.932;10.884;2024-02-26T07:50:19;4.77;83.59
66722;SHT31;53633;49.932;10.884;2024-02-26T07:52:48;4.84;83.41
66722;SHT31;53633;49.932;10.884;2024-02-26T07:55:17;4.96;83.21
66722;SHT31;53633;49.932;10.884;2024-02-26T07:57:44;4.94;83.59
66722;SHT31;53633;49.932;10.884;2024-02-26T08:00:12;5.01;83.38
66722;SHT31;53633;49.932;10.884;2024-02-26T08:02:39;5.07;83.49
66722;SHT31;53633;49.932;10.884;2024-02-26T08:05:12;5.14;83.64
66722;SHT31;53633;49.932;10.884;2024-02-26T08:07:39;5.26;83.13
66722;SHT31;53633;49.932;10.884;2024-02-26T08:10:07;5.32;83.15
66722;SHT31;53633;49.932;10.884;2024-02-26T08:12:37;5.42;83.00
66722;SHT31;53633;49.932;10.884;2024-02-26T08:15:07;5.52;82.69
66722;SHT31;53633;49.932;10.884;2024-02-26T08:17:34;5.62;82.47
66722;SHT31;53633;49.932;10.884;2024-02-26T08:20:04;5.72;82.12
66722;SHT31;53633;49.932;10.884;2024-02-26T08:22:33;5.78;81.99
66722;SHT31;53633;49.932;10.884;2024-02-26T08:25:01;5.86;81.77
66722;SHT31;53633;49.932;10.884;2024-02-26T08:27:29;5.87;81.51
66722;SHT31;53633;49.932;10.884;2024-02-26T08:30:00;5.87;81.28
66722;SHT31;53633;49.932;10.884;2024-02-26T08:32:30;6.04;81.15
66722;SHT31;53633;49.932;10.884;2024-02-26T08:35:01;6.17;80.82
66722;SHT31;53633;49.932;10.884;2024-02-26T08:37:28;6.14;80.96
66722;SHT31;53633;49.932;10.884;2024-02-26T08:39:58;6.30;80.64
66722;SHT31;53633;49.932;10.884;2024-02-26T08:42:31;6.44;80.26
66722;SHT31;53633;49.932;10.884;2024-02-26T08:44:59;6.45;79.57
66722;SHT31;53633;49.932;10.884;2024-02-26T08:47:32;6.46;79.41
66722;SHT31;53633;49.932;10.884;2024-02-26T08:49:59;6.44;79.80
66722;SHT31;53633;49.932;10.884;2024-02-26T08:52:26;6.42;79.49
66722;SHT31;53633;49.932;10.884;2024-02-26T08:55:02;6.45;79.49
66722;SHT31;53633;49.932;10.884;2024-02-26T08:57:54;6.54;79.61
66722;SHT31;53633;49.932;10.884;2024-02-26T09:00:21;6.54;80.29
66722;SHT31;53633;49.932;10.884;2024-02-26T09:02:49;6.46;80.61
66722;SHT31;53633;49.932;10.884;2024-02-26T09:05:25;6.64;80.98
66722;SHT31;53633;49.932;10.884;2024-02-26T09:07:59;6.81;80.28
66722;SHT31;53633;49.932;10.884;2024-02-26T09:10:29;7.00;80.05
66722;SHT31;53633;49.932;10.884;2024-02-26T09:12:58;7.13;79.64
66722;SHT31;53633;49.932;10.884;2024-02-26T09:15:27;7.20;79.10
66722;SHT31;53633;49.932;10.884;2024-02-26T09:17:54;7.26;79.40
66722;SHT31;53633;49.932;10.884;2024-02-26T09:20:23;7.26;79.09
66722;SHT31;53633;49.932;10.884;2024-02-26T09:22:50;7.31;78.55
66722;SHT31;53633;49.932;10.884;2024-02-26T09:25:19;7.50;78.07
66722;SHT31;53633;49.932;10.884;2024-02-26T09:27:48;7.62;77.76
66722;SHT31;53633;49.932;10.884;2024-02-26T09:30:17;7.54;77.36
66722;SHT31;53633;49.932;10.884;2024-02-26T09:32:46;7.78;77.29
66722;SHT31;53633;49.932;10.884;2024-02-26T09:35:13;7.86;77.60
66722;SHT31;53633;49.932;10.884;2024-02-26T09:37:41;7.93;76.82
66722;SHT31;53633;49.932;10.884;2024-02-26T09:40:08;7.97;76.72
66722;SHT31;53633;49.932;10.884;2024-02-26T09:42:35;8.19;76.27
66722;SHT31;53633;49.932;10.884;2024-02-26T09:45:06;8.33;75.59
66722;SHT31;53633;49.932;10.884;2024-02-26T09:47:37;8.29;74.84
66722;SHT31;53633;49.932;10.884;2024-02-26T09:50:07;8.31;75.09
66722;SHT31;53633;49.932;10.884;2024-02-26T09:52:37;8.44;74.93
66722;SHT31;53633;49.932;10.884;2024-02-26T09:55:08;8.51;74.51
66722;SHT31;53633;49.932;10.884;2024-02-26T09:57:54;8.79;74.32
66722;SHT31;53633;49.932;10.884;2024-02-26T10:00:26;8.92;73.14
66722;SHT31;53633;49.932;10.884;2024-02-26T10:02:55;9.07;72.32
66722;SHT31;53633;49.932;10.884;2024-02-26T10:05:22;9.17;72.18
66722;SHT31;53633;49.932;10.884;2024-02-26T10:07:52;9.28;71.69
66722;SHT31;53633;49.932;10.884;2024-02-26T10:10:20;9.31;71.54
66722;SHT31;53633;49.932;10.884;2024-02-26T10:12:47;9.40;71.50
66722;SHT31;53633;49.932;10.884;2024-02-26T10:15:15;9.40;71.43
66722;SHT31;53633;49.932;10.884;2024-02-26T10:17:44;9.45;71.38
66722;SHT31;53633;49.932;10.884;2024-02-26T10:20:12;9.43;71.76
66722;SHT31;53633;49.932;10.884;2024-02-26T10:22:40;9.54;71.44
66722;SHT31;53633;49.932;10.884;2024-02-26T10:25:08;9.64;71.65
66722;SHT31;53633;49.932;10.884;2024-02-26T10:30:31;9.91;70.47
66722;SHT31;53633;49.932;10.884;2024-02-26T10:33:02;9.89;70.66
66722;SHT31;53633;49.932;10.884;2024-02-26T10:35:31;9.99;69.61
66722;SHT31;53633;49.932;10.884;2024-02-26T10:38:00;10.13;69.14
66722;SHT31;53633;49.932;10.884;2024-02-26T10:40:27;10.09;68.07
66722;SHT31;53633;49.932;10.884;2024-02-26T10:42:58;10.14;68.70
66722;SHT31;53633;49.932;10.884;2024-02-26T10:45:25;10.37;68.24
66722;SHT31;53633;49.932;10.884;2024-02-26T10:47:52;10.20;68.51
66722;SHT31;53633;49.932;10.884;2024-02-26T10:50:24;10.32;68.81
66722;SHT31;53633;49.932;10.884;2024-02-26T10:52:54;10.26;67.91
66722;SHT31;53633;49.932;10.884;2024-02-26T10:55:22;10.37;68.41
66722;SHT31;53633;49.932;10.884;2024-02-26T10:57:52;10.34;68.50
66722;SHT31;53633;49.932;10.884;2024-02-26T11:00:21;10.36;68.70
66722;SHT31;53633;49.932;10.884;2024-02-26T11:02:48;10.30;69.48
66722;SHT31;53633;49.932;10.884;2024-02-26T11:05:17;10.10;69.59
66722;SHT31;53633;49.932;10.884;2024-02-26T11:07:49;10.24;69.44
66722;SHT31;53633;49.932;10.884;2024-02-26T11:10:17;10.29;69.08
66722;SHT31;53633;49.932;10.884;2024-02-26T11:12:45;10.33;68.90
66722;SHT31;53633;49.932;10.884;2024-02-26T11:15:14;10.40;69.04
66722;SHT31;53633;49.932;10.884;2024-02-26T11:17:42;10.37;65.62
66722;SHT31;53633;49.932;10.884;2024-02-26T11:20:18;10.30;64.97
66722;SHT31;53633;49.932;10.884;2024-02-26T11:22:56;10.37;66.46
66722;SHT31;53633;49.932;10.884;2024-02-26T11:25:25;10.47;66.26
66722;SHT31;53633;49.932;10.884;2024-02-26T11:30:22;10.53;65.02
66722;SHT31;53633;49.932;10.884;2024-02-26T11:32:51;10.65;63.84
66722;SHT31;53633;49.932;10.884;2024-02-26T11:35:19;10.69;63.74
66722;SHT31;53633;49.932;10.884;2024-02-26T11:37:54;10.57;63.25
66722;SHT31;53633;49.932;10.884;2024-02-26T11:40:24;10.57;63.09
66722;SHT31;53633;49.932;10.884;2024-02-26T11:42:51;10.43;63.43
66722;SHT31;53633;49.932;10.884;2024-02-26T11:45:50;10.51;63.23
66722;SHT31;53633;49.932;10.884;2024-02-26T11:48:22;10.44;63.64
66722;SHT31;53633;49.932;10.884;2024-02-26T11:50:51;10.43;63.90
66722;SHT31;53633;49.932;10.884;2024-02-26T11:53:25;10.57;63.91
66722;SHT31;53633;49.932;10.884;2024-02-26T11:56:15;10.74;63.14
66722;SHT31;53633;49.932;10.884;2024-02-26T11:58:46;10.91;63.02
66722;SHT31;53633;49.932;10.884;2024-02-26T12:01:41;10.91;63.43
66722;SHT31;53633;49.932;10.884;2024-02-26T12:04:12;11.01;63.01
66722;SHT31;53633;49.932;10.884;2024-02-26T12:06:45;11.11;63.35
66722;SHT31;53633;49.932;10.884;2024-02-26T12:09:13;11.13;63.81
66722;SHT31;53633;49.932;10.884;2024-02-26T12:11:42;11.04;63.53
66722;SHT31;53633;49.932;10.884;2024-02-26T12:14:11;11.11;63.54
66722;SHT31;53633;49.932;10.884;2024-02-26T12:16:39;11.19;63.01
66722;SHT31;53633;49.932;10.884;2024-02-26T12:19:11;11.36;62.73
66722;SHT31;53633;49.932;10.884;2024-02-26T12:21:39;11.44;62.88
66722;SHT31;53633;49.932;10.884;2024-02-26T12:24:13;11.54;62.53
66722;SHT31;53633;49.932;10.884;2024-02-26T12:26:43;11.64;62.75
66722;SHT31;53633;49.932;10.884;2024-02-26T12:29:10;11.70;62.20
66722;SHT31;53633;49.932;10.884;2024-02-26T12:31:39;11.78;62.44
66722;SHT31;53633;49.932;10.884;2024-02-26T12:34:07;11.82;62.24
66722;SHT31;53633;49.932;10.884;2024-02-26T12:36:34;11.75;62.40
66722;SHT31;53633;49.932;10.884;2024-02-26T12:39:01;11.77;61.27
66722;SHT31;53633;49.932;10.884;2024-02-26T12:41:29;11.84;62.30
66722;SHT31;53633;49.932;10.884;2024-02-26T12:44:01;11.88;62.15
66722;SHT31;53633;49.932;10.884;2024-02-26T12:46:31;11.92;60.84
66722;SHT31;53633;49.932;10.884;2024-02-26T12:48:59;11.71;61.71
66722;SHT31;53633;49.932;10.884;2024-02-26T12:51:28;11.66;61.23
66722;SHT31;53633;49.932;10.884;2024-02-26T12:53:56;11.73;61.27
66722;SHT31;53633;49.932;10.884;2024-02-26T12:56:23;11.75;61.19
66722;SHT31;53633;49.932;10.884;2024-02-26T12:58:51;11.74;60.45
66722;SHT31;53633;49.932;10.884;2024-02-26T13:01:24;11.87;60.06
66722;SHT31;53633;49.932;10.884;2024-02-26T13:03:53;11.91;60.28
66722;SHT31;53633;49.932;10.884;2024-02-26T13:06:21;11.81;59.96
66722;SHT31;53633;49.932;10.884;2024-02-26T13:08:48;11.89;60.13
66722;SHT31;53633;49.932;10.884;2024-02-26T13:11:15;11.97;59.99
66722;SHT31;53633;49.932;10.884;2024-02-26T13:13:48;11.91;59.48
66722;SHT31;53633;49.932;10.884;2024-02-26T13:16:17;11.82;59.39
66722;SHT31;53633;49.932;10.884;2024-02-26T13:18:45;11.80;60.20
66722;SHT31;53633;49.932;10.884;2024-02-26T13:21:13;11.74;60.18
66722;SHT31;53633;49.932;10.884;2024-02-26T13:23:48;11.67;59.34
66722;SHT31;53633;49.932;10.884;2024-02-26T13:26:15;11.75;58.40
66722;SHT31;53633;49.932;10.884;2024-02-26T13:28:42;11.75;57.95
66722;SHT31;53633;49.932;10.884;2024-02-26T13:31:09;11.77;58.53
66722;SHT31;53633;49.932;10.884;2024-02-26T13:33:38;11.82;58.43
66722;SHT31;53633;49.932;10.884;2024-02-26T13:36:07;11.85;58.49
66722;SHT31;53633;49.932;10.884;2024-02-26T13:38:37;11.94;58.61
66722;SHT31;53633;49.932;10.884;2024-02-26T13:41:07;11.97;58.65
66722;SHT31;53633;49.932;10.884;2024-02-26T13:43:35;11.98;58.21
66722;SHT31;53633;49.932;10.884;2024-02-26T13:46:01;11.99;57.86
66722;SHT31;53633;49.932;10.884;2024-02-26T13:48:31;12.05;58.23
66722;SHT31;53633;49.932;10.884;2024-02-26T13:51:00;12.04;58.28
66722;SHT31;53633;49.932;10.884;2024-02-26T13:53:32;11.99;58.28
66722;SHT31;53633;49.932;10.884;2024-02-26T13:56:05;12.01;57.96
66722;SHT31;53633;49.932;10.884;2024-02-26T13:58:32;12.01;58.11
66722;SHT31;53633;49.932;10.884;2024-02-26T14:00:59;12.02;58.78
66722;SHT31;53633;49.932;10.884;2024-02-26T14:03:26;11.98;59.32
66722;SHT31;53633;49.932;10.884;2024-02-26T14:05:56;11.95;59.11
66722;SHT31;53633;49.932;10.884;2024-02-26T14:08:24;11.95;59.11
66722;SHT31;53633;49.932;10.884;2024-02-26T14:10:52;11.89;59.40
66722;SHT31;53633;49.932;10.884;2024-02-26T14:13:21;11.87;59.97
66722;SHT31;53633;49.932;10.884;2024-02-26T14:15:48;11.84;59.78
66722;SHT31;53633;49.932;10.884;2024-02-26T14:18:19;11.77;59.51
66722;SHT31;53633;49.932;10.884;2024-02-26T14:20:47;11.78;60.17
66722;SHT31;53633;49.932;10.884;2024-02-26T14:23:14;11.80;59.48
66722;SHT31;53633;49.932;10.884;2024-02-26T14:25:41;11.78;59.56
66722;SHT31;53633;49.932;10.884;2024-02-26T14:28:16;11.81;59.97
66722;SHT31;53633;49.932;10.884;2024-02-26T14:30:51;11.82;60.14
66722;SHT31;53633;49.932;10.884;2024-02-26T14:33:21;11.81;60.63
66722;SHT31;53633;49.932;10.884;2024-02-26T14:35:48;11.78;60.89
66722;SHT31;53633;49.932;10.884;2024-02-26T14:38:16;11.78;61.41
66722;SHT31;53633;49.932;10.884;2024-02-26T14:40:46;11.80;61.90
66722;SHT31;53633;49.932;10.884;2024-02-26T14:43:23;11.75;60.03
66722;SHT31;53633;49.932;10.884;2024-02-26T14:45:52;11.74;60.07
66722;SHT31;53633;49.932;10.884;2024-02-26T14:48:24;11.75;60.24
66722;SHT31;53633;49.932;10.884;2024-02-26T14:50:57;11.77;60.29
66722;SHT31;53633;49.932;10.884;2024-02-26T14:53:25;11.71;60.35
66722;SHT31;53633;49.932;10.884;2024-02-26T14:55:51;11.61;60.96
66722;SHT31;53633;49.932;10.884;2024-02-26T14:58:26;11.54;61.57
66722;SHT31;53633;49.932;10.884;2024-02-26T15:00:53;11.56;62.14
66722;SHT31;53633;49.932;10.884;2024-02-26T15:03:20;11.49;62.00
66722;SHT31;53633;49.932;10.884;2024-02-26T15:05:47;11.46;63.09
66722;SHT31;53633;49.932;10.884;2024-02-26T15:08:14;11.39;62.71
66722;SHT31;53633;49.932;10.884;2024-02-26T15:10:41;11.32;62.52
66722;SHT31;53633;49.932;10.884;2024-02-26T15:13:08;11.27;62.69
66722;SHT31;53633;49.932;10.884;2024-02-26T15:15:37;11.24;63.34
66722;SHT31;53633;49.932;10.884;2024-02-26T15:18:04;11.16;63.19
66722;SHT31;53633;49.932;10.884;2024-02-26T15:20:31;11.15;64.20
66722;SHT31;53633;49.932;10.884;2024-02-26T15:23:00;11.15;64.49
66722;SHT31;53633;49.932;10.884;2024-02-26T15:25:28;11.15;64.78
66722;SHT31;53633;49.932;10.884;2024-02-26T15:27:55;11.05;64.99
66722;SHT31;53633;49.932;10.884;2024-02-26T15:30:24;11.02;65.13
66722;SHT31;53633;49.932;10.884;2024-02-26T15:33:03;10.91;64.58
66722;SHT31;53633;49.932;10.884;2024-02-26T15:35:32;10.94;64.61
66722;SHT31;53633;49.932;10.884;2024-02-26T15:38:03;10.88;64.84
66722;SHT31;53633;49.932;10.884;2024-02-26T15:40:30;10.86;64.93
66722;SHT31;53633;49.932;10.884;2024-02-26T15:42:57;10.88;65.51
66722;SHT31;53633;49.932;10.884;2024-02-26T15:45:27;10.86;65.53
66722;SHT31;53633;49.932;10.884;2024-02-26T15:47:57;10.91;65.44
66722;SHT31;53633;49.932;10.884;2024-02-26T15:50:25;10.84;65.01
66722;SHT31;53633;49.932;10.884;2024-02-26T15:52:55;10.82;65.17
66722;SHT31;53633;49.932;10.884;2024-02-26T15:55:22;10.82;65.38
66722;SHT31;53633;49.932;10.884;2024-02-26T15:57:51;10.81;65.35
66722;SHT31;53633;49.932;10.884;2024-02-26T16:00:21;10.79;65.64
66722;SHT31;53633;49.932;10.884;2024-02-26T16:02:49;10.75;65.77
66722;SHT31;53633;49.932;10.884;2024-02-26T16:05:18;10.74;65.90
66722;SHT31;53633;49.932;10.884;2024-02-26T16:07:55;10.72;65.88
66722;SHT31;53633;49.932;10.884;2024-02-26T16:10:23;10.68;65.85
66722;SHT31;53633;49.932;10.884;2024-02-26T16:12:53;10.69;66.23
66722;SHT31;53633;49.932;10.884;2024-02-26T16:15:23;10.67;66.30
66722;SHT31;53633;49.932;10.884;2024-02-26T16:17:54;10.64;66.53
66722;SHT31;53633;49.932;10.884;2024-02-26T16:20:24;10.64;66.61
66722;SHT31;53633;49.932;10.884;2024-02-26T16:22:57;10.67;66.73
66722;SHT31;53633;49.932;10.884;2024-02-26T16:25:25;10.65;66.95
66722;SHT31;53633;49.932;10.884;2024-02-26T16:27:52;10.65;67.04
66722;SHT31;53633;49.932;10.884;2024-02-26T16:30:19;10.61;67.32
66722;SHT31;53633;49.932;10.884;2024-02-26T16:32:47;10.60;68.00
66722;SHT31;53633;49.932;10.884;2024-02-26T16:35:14;10.56;67.93
66722;SHT31;53633;49.932;10.884;2024-02-26T16:37:48;10.56;68.09
66722;SHT31;53633;49.932;10.884;2024-02-26T16:40:15;10.56;68.35
66722;SHT31;53633;49.932;10.884;2024-02-26T16:42:42;10.53;68.07
66722;SHT31;53633;49.932;10.884;2024-02-26T16:45:11;10.53;68.21
66722;SHT31;53633;49.932;10.884;2024-02-26T16:47:38;10.50;68.09
66722;SHT31;53633;49.932;10.884;2024-02-26T16:50:07;10.48;67.78
66722;SHT31;53633;49.932;10.884;2024-02-26T16:52:36;10.47;67.79
66722;SHT31;53633;49.932;10.884;2024-02-26T16:55:07;10.46;68.32
66722;SHT31;53633;49.932;10.884;2024-02-26T16:57:35;10.41;69.05
66722;SHT31;53633;49.932;10.884;2024-02-26T17:00:08;10.34;69.44
66722;SHT31;53633;49.932;10.884;2024-02-26T17:02:38;10.32;69.29
66722;SHT31;53633;49.932;10.884;2024-02-26T17:05:06;10.29;68.89
66722;SHT31;53633;49.932;10.884;2024-02-26T17:07:33;10.28;68.79
66722;SHT31;53633;49.932;10.884;2024-02-26T17:10:01;10.28;69.08
66722;SHT31;53633;49.932;10.884;2024-02-26T17:12:29;10.19;69.55
66722;SHT31;53633;49.932;10.884;2024-02-26T17:15:00;10.12;70.48
66722;SHT31;53633;49.932;10.884;2024-02-26T17:17:27;10.12;70.18
66722;SHT31;53633;49.932;10.884;2024-02-26T17:19:54;10.03;70.89
66722;SHT31;53633;49.932;10.884;2024-02-26T17:22:21;9.98;71.40
66722;SHT31;53633;49.932;10.884;2024-02-26T17:24:51;9.89;71.10
66722;SHT31;53633;49.932;10.884;2024-02-26T17:27:19;9.83;71.08
66722;SHT31;53633;49.932;10.884;2024-02-26T17:29:54;9.74;70.94
66722;SHT31;53633;49.932;10.884;2024-02-26T17:32:21;9.57;71.20
66722;SHT31;53633;49.932;10.884;2024-02-26T17:34:48;9.55;71.45
66722;SHT31;53633;49.932;10.884;2024-02-26T17:37:19;9.55;71.50
66722;SHT31;53633;49.932;10.884;2024-02-26T17:39:46;9.55;71.19
66722;SHT31;53633;49.932;10.884;2024-02-26T17:42:13;9.55;70.77
66722;SHT31;53633;49.932;10.884;2024-02-26T17:44:40;9.57;70.81
66722;SHT31;53633;49.932;10.884;2024-02-26T17:47:09;9.55;70.64
66722;SHT31;53633;49.932;10.884;2024-02-26T17:49:38;9.50;70.91
66722;SHT31;53633;49.932;10.884;2024-02-26T17:52:07;9.48;70.75
66722;SHT31;53633;49.932;10.884;2024-02-26T17:54:35;9.50;70.55
66722;SHT31;53633;49.932;10.884;2024-02-26T17:57:02;9.50;70.68
66722;SHT31;53633;49.932;10.884;2024-02-26T17:59:29;9.48;70.92
66722;SHT31;53633;49.932;10.884;2024-02-26T18:01:56;9.48;71.28
66722;SHT31;53633;49.932;10.884;2024-02-26T18:04:25;9.47;71.42
66722;SHT31;53633;49.932;10.884;2024-02-26T18:06:52;9.45;71.74
66722;SHT31;53633;49.932;10.884;2024-02-26T18:09:19;9.37;72.10
66722;SHT31;53633;49.932;10.884;2024-02-26T18:11:48;9.36;72.30
66722;SHT31;53633;49.932;10.884;2024-02-26T18:14:15;9.36;72.55
66722;SHT31;53633;49.932;10.884;2024-02-26T18:16:42;9.27;72.84
66722;SHT31;53633;49.932;10.884;2024-02-26T18:19:11;9.27;72.88
66722;SHT31;53633;49.932;10.884;2024-02-26T18:22:00;9.26;73.05
66722;SHT31;53633;49.932;10.884;2024-02-26T18:24:36;9.23;73.24
66722;SHT31;53633;49.932;10.884;2024-02-26T18:27:07;9.16;73.29
66722;SHT31;53633;49.932;10.884;2024-02-26T18:29:45;9.22;73.14
66722;SHT31;53633;49.932;10.884;2024-02-26T18:32:14;9.22;73.23
66722;SHT31;53633;49.932;10.884;2024-02-26T18:34:48;9.22;73.20
66722;SHT31;53633;49.932;10.884;2024-02-26T18:37:17;9.24;73.17
66722;SHT31;53633;49.932;10.884;2024-02-26T18:40:04;9.27;73.16
66722;SHT31;53633;49.932;10.884;2024-02-26T18:42:43;9.26;73.10
66722;SHT31;53633;49.932;10.884;2024-02-26T18:45:25;9.28;72.78
66722;SHT31;53633;49.932;10.884;2024-02-26T18:47:58;9.30;72.85
66722;SHT31;53633;49.932;10.884;2024-02-26T18:50:28;9.33;73.01
66722;SHT31;53633;49.932;10.884;2024-02-26T18:52:57;9.31;73.19
66722;SHT31;53633;49.932;10.884;2024-02-26T18:55:24;9.28;73.43
66722;SHT31;53633;49.932;10.884;2024-02-26T18:57:52;9.33;73.55
66722;SHT31;53633;49.932;10.884;2024-02-26T19:00:23;9.31;73.51